createdAt,value
2018-12-09T13:00:45.490Z,965.21
2018-12-09T13:01:45.494Z,965.20
2018-12-09T13:04:10.370Z,965.26
2018-12-09T13:05:10.401Z,965.27
2018-12-09T13:06:10.441Z,965.30
2018-12-09T13:07:10.488Z,965.35
2018-12-09T13:08:10.520Z,965.34
2018-12-09T13:09:10.553Z,965.35
2018-12-09T13:10:54.478Z,965.37
2018-12-09T13:12:34.818Z,965.41
2018-12-09T13:13:34.855Z,965.45
2018-12-09T13:14:34.888Z,965.48
2018-12-09T13:15:34.923Z,965.47
2018-12-09T13:16:34.945Z,965.50
2018-12-09T13:17:34.989Z,965.50
2018-12-09T13:18:35.027Z,965.46
2018-12-09T13:19:35.063Z,965.54
2018-12-09T13:20:35.102Z,965.54
2018-12-09T13:21:35.150Z,965.48
2018-12-09T13:22:35.206Z,965.48
2018-12-09T13:23:35.230Z,965.46
2018-12-09T13:24:35.254Z,965.45
2018-12-09T13:25:35.306Z,965.44
2018-12-09T13:26:35.339Z,965.42
2018-12-09T13:27:35.378Z,965.46
2018-12-09T13:28:35.420Z,965.44
2018-12-09T13:29:35.455Z,965.43
2018-12-09T13:30:35.495Z,965.49
2018-12-09T13:31:35.540Z,965.51
2018-12-09T13:32:35.575Z,965.55
2018-12-09T13:33:35.614Z,965.58
2018-12-09T13:34:35.651Z,965.63
2018-12-09T13:35:35.699Z,965.68
2018-12-09T13:36:35.751Z,965.67
2018-12-09T13:37:35.771Z,965.73
2018-12-09T13:38:25.430Z,965.73
2018-12-09T13:39:25.448Z,965.72
2018-12-09T13:40:25.474Z,965.78
2018-12-09T13:41:25.519Z,965.87
2018-12-09T13:42:25.563Z,965.89
2018-12-09T13:43:25.605Z,965.88
2018-12-09T13:44:25.640Z,965.88
2018-12-09T13:45:25.680Z,965.90
2018-12-09T13:46:25.716Z,965.91
2018-12-09T13:47:25.770Z,965.94
2018-12-09T13:48:25.817Z,965.90
2018-12-09T13:49:25.833Z,965.91
2018-12-09T13:50:25.870Z,965.92
2018-12-09T13:51:25.919Z,965.96
2018-12-09T13:52:25.961Z,965.99
2018-12-09T13:53:26.007Z,965.93
2018-12-09T13:54:26.037Z,965.92
2018-12-09T13:55:26.084Z,965.96
2018-12-09T13:56:26.202Z,965.96
2018-12-09T13:57:26.168Z,965.99
2018-12-09T13:58:26.194Z,966.05
2018-12-09T13:59:27.569Z,966.11
2018-12-09T14:00:26.275Z,966.14
2018-12-09T14:01:26.315Z,966.14
2018-12-09T14:02:26.359Z,966.17
2018-12-09T14:03:26.405Z,966.05
2018-12-09T14:04:26.440Z,966.10
2018-12-09T14:05:26.476Z,966.12
2018-12-09T14:06:26.519Z,966.16
2018-12-09T14:07:26.555Z,966.20
2018-12-09T14:08:26.597Z,966.22
2018-12-09T14:09:26.645Z,966.24
2018-12-09T14:10:26.681Z,966.20
2018-12-09T14:11:26.721Z,966.21
2018-12-09T14:12:26.763Z,966.22
2018-12-09T14:13:26.798Z,966.25
2018-12-09T14:14:26.846Z,966.28
2018-12-09T14:15:26.889Z,966.31
2018-12-09T14:16:26.934Z,966.34
2018-12-09T14:17:26.966Z,966.37
2018-12-09T14:18:27.011Z,966.40
2018-12-09T14:19:27.049Z,966.44
2018-12-09T14:20:27.086Z,966.42
2018-12-09T14:21:27.138Z,966.45
2018-12-09T14:22:27.166Z,966.48
2018-12-09T14:23:27.209Z,966.52
2018-12-09T14:24:27.252Z,966.46
2018-12-09T14:25:27.290Z,966.50
2018-12-09T14:26:27.338Z,966.56
2018-12-09T14:27:27.373Z,966.62
2018-12-09T14:28:27.413Z,966.65
2018-12-09T14:29:27.457Z,966.70
2018-12-09T14:30:27.488Z,966.73
2018-12-09T14:31:27.530Z,966.73
2018-12-09T14:32:27.575Z,966.79
2018-12-09T14:33:27.686Z,966.76
2018-12-09T14:34:27.660Z,966.78
2018-12-09T14:35:27.690Z,966.83
2018-12-09T14:36:27.733Z,966.83
2018-12-09T14:37:27.782Z,966.86
2018-12-09T14:38:27.818Z,966.88
2018-12-09T14:39:27.861Z,966.99
2018-12-09T14:40:27.900Z,966.99
2018-12-09T14:41:28.012Z,966.99
2018-12-09T14:42:27.977Z,967.01
2018-12-09T14:43:28.015Z,967.01
2018-12-09T14:44:29.405Z,966.93
2018-12-09T14:45:28.096Z,966.98
2018-12-09T14:46:28.137Z,966.98
2018-12-09T14:47:28.175Z,967.01
2018-12-09T14:48:28.224Z,967.01
2018-12-09T14:49:28.266Z,966.99
2018-12-09T14:50:28.304Z,967.05
2018-12-09T14:51:28.342Z,967.13
2018-12-09T14:52:28.384Z,967.21
2018-12-09T14:53:28.422Z,967.21
2018-12-09T14:54:28.509Z,967.25
2018-12-09T14:55:28.505Z,967.26
2018-12-09T14:56:28.548Z,967.35
2018-12-09T14:57:28.590Z,967.34
2018-12-09T14:58:28.625Z,967.37
2018-12-09T14:59:28.674Z,967.41
2018-12-09T15:00:28.709Z,967.47
2018-12-09T15:01:28.764Z,967.49
2018-12-09T15:02:28.801Z,967.48
2018-12-09T15:03:28.834Z,967.53
2018-12-09T15:04:28.873Z,967.57
2018-12-09T15:05:28.920Z,967.55
2018-12-09T15:06:28.957Z,967.52
2018-12-09T15:07:28.987Z,967.58
2018-12-09T15:08:29.042Z,967.58
2018-12-09T15:09:29.074Z,967.65
2018-12-09T15:10:29.117Z,967.65
2018-12-09T15:11:29.161Z,967.72
2018-12-09T15:12:29.199Z,967.72
2018-12-09T15:13:29.238Z,967.71
2018-12-09T15:14:29.307Z,967.72
2018-12-09T15:15:29.315Z,967.75
2018-12-09T15:16:29.371Z,967.75
2018-12-09T15:17:29.397Z,967.81
2018-12-09T15:18:29.437Z,967.82
2018-12-09T15:19:29.491Z,967.82
2018-12-09T15:20:29.518Z,967.81
2018-12-09T15:21:29.561Z,967.82
2018-12-09T15:22:29.606Z,967.79
2018-12-09T15:23:29.650Z,967.80
2018-12-09T15:24:29.680Z,967.79
2018-12-09T15:25:29.730Z,967.82
2018-12-09T15:26:29.766Z,967.79
2018-12-09T15:27:29.809Z,967.86
2018-12-09T15:28:29.858Z,967.87
2018-12-09T15:29:29.888Z,967.88
2018-12-09T15:30:29.933Z,967.95
2018-12-09T15:31:29.973Z,967.99
2018-12-09T15:32:30.005Z,967.97
2018-12-09T15:33:30.054Z,968.07
2018-12-09T15:34:30.111Z,968.03
2018-12-09T15:35:30.132Z,968.09
2018-12-09T15:36:30.189Z,968.09
2018-12-09T15:37:30.228Z,968.06
2018-12-09T15:38:30.250Z,968.08
2018-12-09T15:39:30.304Z,968.08
2018-12-09T15:40:30.339Z,968.12
2018-12-09T15:41:30.379Z,968.08
2018-12-09T15:42:30.416Z,968.14
2018-12-09T15:43:30.460Z,968.13
2018-12-09T15:44:30.505Z,968.19
2018-12-09T15:45:30.550Z,968.21
2018-12-09T15:46:30.586Z,968.21
2018-12-09T15:47:30.621Z,968.23
2018-12-09T15:48:30.778Z,968.23
2018-12-09T15:49:30.712Z,968.29
2018-12-09T15:50:30.740Z,968.38
2018-12-09T15:51:30.782Z,968.32
2018-12-09T15:52:30.835Z,968.33
2018-12-09T15:53:30.863Z,968.32
2018-12-09T15:54:30.916Z,968.41
2018-12-09T15:55:30.949Z,968.44
2018-12-09T15:56:30.983Z,968.45
2018-12-09T15:57:31.025Z,968.45
2018-12-09T15:58:31.071Z,968.42
2018-12-09T15:59:32.269Z,968.47
2018-12-09T16:00:31.153Z,968.53
2018-12-09T16:01:31.191Z,968.54
2018-12-09T16:02:31.221Z,968.58
2018-12-09T16:03:31.275Z,968.67
2018-12-09T16:04:31.315Z,968.63
2018-12-09T16:05:31.347Z,968.65
2018-12-09T16:06:31.391Z,968.63
2018-12-09T16:07:31.433Z,968.66
2018-12-09T16:08:31.480Z,968.68
2018-12-09T16:09:31.517Z,968.73
2018-12-09T16:10:31.554Z,968.75
2018-12-09T16:11:31.595Z,968.76
2018-12-09T16:12:31.640Z,968.81
